Latest Weather Observations for Omeo

IDV60801

Issued at 10:32 am EST Tuesday 26 May 2020 (issued every 10 minutes, with the page automatically refreshed every 10 minutes)

About weather observations | Map of weather stations | Latest weather observations for VIC | Other Formats
Station Details ID: 083090 Name: OMEO Lat: -37.10 Lon: 147.60 Height: 689.8 m
Data from the previous 72 hours. | See also: Recent months at Omeo
Date/Time
EST
Temp
°C
App
Temp
°C
Dew
Point
°C
Rel
Hum
%
Delta-T
°C
Wind Press
QNH
hPa
Press
MSL
hPa
Rain since
9am
mm
Dir  Spd
km/h
Gust
km/h
Spd
kts
Gust
kts
26/10:30am 7.1 3.6 5.4 89 0.8 N 13 19 7 10 1026.9 1027.3 0.0
26/10:00am 6.9 4.1 5.1 88 0.8 N 9 11 5 6 1026.9 1027.3 0.0
26/09:30am 6.1 3.9 3.6 84 1.1 N 4 7 2 4 1026.9 1027.3 0.0
26/09:00am 4.9 3.1 3.6 91 0.6 N 2 7 1 4 1026.9 1027.3 1.6
26/08:30am 3.1 1.2 3.0 99 0.0 W 2 6 1 3 1026.8 1027.2 1.6
26/08:00am 1.6 -0.2 1.5 99 0.0 CALM 0 6 0 3 1026.7 1027.1 1.6
26/07:30am 0.9 -1.0 0.8 99 0.0 CALM 0 0 0 0 1026.5 1026.9 1.6
26/07:00am 1.0 -2.0 0.9 99 0.0 SE 6 7 3 4 1026.2 1026.5 1.6
26/06:30am 1.6 -0.2 1.5 99 0.0 CALM 0 0 0 0 1025.9 1026.2 1.6
26/06:00am 2.0 0.3 1.9 99 0.0 CALM 0 0 0 0 1025.7 1026.1 1.6
26/05:30am 2.6 1.0 2.5 99 0.0 CALM 0 0 0 0 1025.6 1026.0 1.6
26/05:00am 3.1 0.5 3.0 99 0.0 SE 6 7 3 4 1025.4 1025.8 1.6
26/04:30am 4.4 3.1 4.3 99 0.0 CALM 0 4 0 2 1025.4 1025.8 1.6
26/04:00am 4.5 3.3 4.4 99 0.0 CALM 0 0 0 0 1025.7 1026.1 1.6
26/03:30am 4.6 3.4 4.5 99 0.0 CALM 0 0 0 0 1026.0 1026.3 1.6
26/03:00am 4.5 3.3 4.4 99 0.0 CALM 0 0 0 0 1026.1 1026.4 1.6
26/02:30am 5.2 3.3 5.1 99 0.0 NNE 4 7 2 4 1026.3 1026.6 1.6
26/02:00am 5.3 4.2 5.2 99 0.0 CALM 0 6 0 3 1026.3 1026.6 1.6
26/01:30am 6.0 4.7 5.9 99 0.0 SW 2 6 1 3 1026.4 1026.7 1.6
26/01:00am 6.2 5.3 6.1 99 0.0 CALM 0 4 0 2 1026.6 1027.0 1.4
26/12:30am 5.9 4.2 5.8 99 0.0 SW 4 9 2 5 1026.8 1027.2 0.8
26/12:00am 6.0 3.9 5.9 99 0.0 SSW 6 9 3 5 1026.9 1027.3 0.8
 
Date/Time
EST
Temp
°C
App
Temp
°C
Dew
Point
°C
Rel
Hum
%
Delta-T
°C
Wind Press
QNH
hPa
Press
MSL
hPa
Rain since
9am
mm
Dir  Spd
km/h
Gust
km/h
Spd
kts
Gust
kts
25/11:30pm 6.2 4.9 6.1 99 0.0 SSW 2 6 1 3 1026.8 1027.2 0.8
25/11:00pm 6.4 5.2 6.3 99 0.0 S 2 9 1 5 1026.8 1027.2 0.8
25/10:30pm 6.3 5.4 6.2 99 0.0 CALM 0 0 0 0 1026.9 1027.3 0.8
25/10:00pm 6.4 5.6 6.3 99 0.0 CALM 0 0 0 0 1026.7 1027.1 0.8
25/09:30pm 6.5 4.5 6.4 99 0.0 SSE 6 9 3 5 1026.5 1026.9 0.8
25/09:00pm 6.7 4.8 6.6 99 0.0 SSE 6 9 3 5 1026.6 1027.0 0.8
25/08:30pm 7.1 4.7 7.0 99 0.0 SSE 9 13 5 7 1026.5 1026.9 0.8
25/08:00pm 7.2 4.8 7.1 99 0.0 SE 9 13 5 7 1026.4 1026.7 0.8
25/07:30pm 7.5 6.5 7.4 99 0.0 SSE 2 7 1 4 1026.1 1026.4 0.8
25/07:00pm 7.6 5.6 7.3 98 0.1 SSE 7 13 4 7 1026.1 1026.4 0.6
25/06:30pm 7.6 6.6 7.2 97 0.2 SSW 2 9 1 5 1025.9 1026.2 0.6
25/06:00pm 7.5 6.7 6.6 94 0.4 CALM 0 6 0 3 1025.2 1025.6 0.6
25/05:30pm 7.7 5.6 6.6 93 0.5 SSE 7 11 4 6 1024.8 1025.1 0.6
25/05:00pm 8.1 5.7 7.0 93 0.5 SE 9 15 5 8 1024.5 1024.8 0.6
25/04:30pm 8.4 6.5 6.9 90 0.7 SSE 6 7 3 4 1024.5 1024.8 0.6
25/04:00pm 8.4 5.9 6.5 88 0.9 SE 9 13 5 7 1024.4 1024.7 0.6
25/03:30pm 8.6 5.8 6.9 89 0.8 SE 11 15 6 8 1024.5 1024.8 0.6
25/03:00pm 8.2 4.5 6.3 88 0.9 SE 15 26 8 14 1024.4 1024.7 0.6
25/02:30pm 8.6 5.2 7.7 94 0.4 SE 15 28 8 15 1024.4 1024.7 0.6
25/02:00pm 8.4 5.7 7.5 94 0.4 SE 11 20 6 11 1024.6 1024.9 0.6
25/01:30pm 8.8 5.0 7.4 91 0.7 SE 17 28 9 15 1024.6 1024.9 0.2
25/01:00pm 8.2 4.7 7.3 94 0.4 SE 15 24 8 13 1024.5 1024.8 0.2
25/12:30pm 8.5 4.7 7.4 93 0.5 SE 17 26 9 14 1024.4 1024.7 0.2
25/12:00pm 8.9 5.2 7.8 93 0.5 SE 17 30 9 16 1024.4 1024.7 0.2
25/11:30am 8.2 3.7 7.1 93 0.5 SE 20 30 11 16 1024.7 1025.0 0.2
25/11:00am 8.4 4.9 7.0 91 0.7 SSE 15 24 8 13 1024.8 1025.1 0.2
25/10:30am 7.8 4.0 7.5 98 0.1 SSE 17 26 9 14 1024.8 1025.1 0.2
25/10:00am 7.5 3.6 7.2 98 0.1 SSE 17 26 9 14 1024.7 1025.0 0.2
25/09:30am 7.2 3.6 6.9 98 0.1 SSE 15 26 8 14 1024.6 1024.9 0.2
25/09:00am 6.9 2.6 6.8 99 0.0 SSE 19 35 10 19 1024.3 1024.6 3.6
25/08:30am 6.7 2.7 6.6 99 0.0 SSE 17 32 9 17 1024.0 1024.4 3.6
25/08:00am 6.3 3.7 6.2 99 0.0 S 9 19 5 10 1024.0 1024.4 3.0
25/07:30am 6.3 3.7 6.2 99 0.0 SSW 9 17 5 9 1023.7 1024.0 2.6
25/07:00am 6.1 3.1 5.8 98 0.1 SSW 11 17 6 9 1023.3 1023.6 2.6
25/06:30am 6.3 3.5 5.3 93 0.5 S 9 17 5 9 1023.2 1023.5 2.6
25/06:00am 5.9 3.0 4.9 93 0.5 S 9 17 5 9 1023.0 1023.3 2.6
25/05:30am 6.0 3.3 5.4 96 0.3 SSW 9 15 5 8 1022.9 1023.2 2.6
25/05:00am 6.1 2.9 4.9 92 0.5 S 11 20 6 11 1022.5 1022.8 2.6
25/04:30am 6.5 2.8 6.1 97 0.2 SSE 15 24 8 13 1022.3 1022.6 2.6
25/04:00am 6.7 2.7 6.6 99 0.0 SSE 17 30 9 16 1022.3 1022.6 2.4
25/03:30am 6.8 4.7 6.7 99 0.0 SSE 7 13 4 7 1022.2 1022.5 1.2
25/03:00am 6.6 3.7 6.5 99 0.0 SSW 11 19 6 10 1022.2 1022.5 0.4
25/02:30am 6.6 4.0 6.0 96 0.3 S 9 15 5 8 1022.0 1022.3 0.2
25/02:00am 6.3 3.7 6.0 98 0.1 S 9 13 5 7 1022.1 1022.4 0.2
25/01:30am 6.2 3.2 6.1 99 0.0 SSW 11 15 6 8 1022.2 1022.5 0.2
25/01:00am 6.4 3.0 6.0 97 0.2 SSW 13 17 7 9 1022.3 1022.6 0.2
25/12:30am 6.5 3.7 5.3 92 0.6 S 9 19 5 10 1022.3 1022.6 0.2
25/12:00am 6.4 3.3 5.7 95 0.3 S 11 20 6 11 1022.3 1022.6 0.2
 
Date/Time
EST
Temp
°C
App
Temp
°C
Dew
Point
°C
Rel
Hum
%
Delta-T
°C
Wind Press
QNH
hPa
Press
MSL
hPa
Rain since
9am
mm
Dir  Spd
km/h
Gust
km/h
Spd
kts
Gust
kts
24/11:30pm 6.8 4.1 5.7 93 0.5 S 9 17 5 9 1022.2 1022.5 0.0
24/11:00pm 6.9 3.8 5.7 92 0.6 S 11 24 6 13 1022.2 1022.5 0.0
24/10:30pm 6.8 4.2 6.1 95 0.3 S 9 20 5 11 1022.1 1022.4 0.0
24/10:00pm 7.2 4.5 5.5 89 0.8 SSE 9 17 5 9 1021.9 1022.2 0.0
24/09:30pm 7.0 3.8 5.2 88 0.8 SSW 11 20 6 11 1021.7 1022.0 0.0
24/09:00pm 6.8 3.6 5.1 89 0.8 S 11 19 6 10 1021.5 1021.7 0.0
24/08:30pm 6.8 3.5 4.8 87 0.9 SSW 11 19 6 10 1021.5 1021.7 0.0
24/08:00pm 6.8 3.1 4.5 85 1.0 SSW 13 26 7 14 1021.5 1021.7 0.0
24/07:30pm 6.8 3.4 4.1 83 1.2 SSW 11 19 6 10 1021.4 1021.6 0.0
24/07:00pm 7.0 3.1 3.4 78 1.6 SSW 13 20 7 11 1021.0 1021.3 0.0
24/06:30pm 7.3 3.5 3.7 78 1.6 S 13 24 7 13 1020.9 1021.2 0.0
24/06:00pm 7.6 4.5 3.8 77 1.7 S 9 19 5 10 1020.6 1020.9 0.0
24/05:30pm 7.9 4.5 3.9 76 1.8 SSE 11 17 6 9 1020.5 1020.8 0.0
24/05:00pm 8.2 4.4 3.7 73 2.0 SSE 13 22 7 12 1020.2 1020.4 0.0
24/04:30pm 8.6 5.1 3.6 71 2.3 SSE 11 19 6 10 1019.9 1020.1 0.0
24/04:00pm 9.2 5.3 3.2 66 2.7 S 13 28 7 15 1019.5 1019.8 0.0
24/03:30pm 9.4 5.5 3.6 67 2.6 SSE 13 26 7 14 1019.4 1019.7 0.0
24/03:00pm 9.9 6.1 4.1 67 2.7 SE 13 26 7 14 1019.1 1019.4 0.0
24/02:30pm 9.5 5.2 3.0 64 2.9 SSE 15 26 8 14 1019.0 1019.3 0.0
24/02:00pm 10.0 6.0 3.1 62 3.1 SSE 13 24 7 13 1018.9 1019.1 0.0
24/01:30pm 9.2 4.8 4.8 74 2.0 SE 17 28 9 15 1019.0 1019.3 0.0
24/01:00pm 9.8 4.9 4.2 68 2.6 SSE 19 32 10 17 1018.8 1019.0 0.0
24/12:30pm 8.9 4.7 5.5 79 1.6 SE 17 33 9 18 1019.1 1019.4 0.0
24/12:00pm 10.7 6.2 5.9 72 2.3 SE 19 30 10 16 1019.1 1019.4 0.0
24/11:30am 8.6 5.1 5.5 81 1.5 SSE 13 20 7 11 1019.7 1019.9 0.0
24/11:00am 8.8 5.1 6.3 84 1.2 SE 15 20 8 11 1019.7 1019.9 0.0
24/10:30am 9.1 5.3 5.7 79 1.6 SE 15 26 8 14 1019.7 1019.9 0.0
24/10:00am 9.6 5.5 6.1 79 1.7 SE 17 30 9 16 1019.7 1019.9 0.0
24/09:30am 8.2 4.8 5.8 85 1.1 SSE 13 19 7 10 1019.5 1019.8 0.0
24/09:00am 7.2 4.5 5.8 91 0.7 SSE 9 19 5 10 1019.3 1019.6 0.2
24/08:30am 6.6 2.9 6.2 97 0.2 SSE 15 24 8 13 1019.0 1019.3 0.2
24/08:00am 6.4 3.0 6.0 97 0.2 SSE 13 22 7 12 1018.8 1019.0 0.2
24/07:30am 6.4 4.1 5.0 91 0.6 S 6 13 3 7 1018.4 1018.6 0.0
24/07:00am 6.3 4.1 5.4 94 0.4 SSE 6 11 3 6 1018.1 1018.3 0.0
24/06:30am 6.3 3.1 4.9 91 0.6 S 11 24 6 13 1017.6 1017.8 0.0
24/06:00am 6.4 3.5 4.9 90 0.7 S 9 20 5 11 1017.4 1017.6 0.0
24/05:30am 6.7 3.0 4.2 84 1.1 S 13 26 7 14 1017.2 1017.4 0.0
24/05:00am 6.8 3.8 4.3 84 1.1 SSE 9 17 5 9 1016.8 1017.0 0.0
24/04:30am 6.7 3.7 4.2 84 1.1 SSE 9 17 5 9 1016.4 1016.6 0.0
24/04:00am 6.8 3.7 3.4 79 1.5 SSE 9 15 5 8 1016.4 1016.6 0.0
24/03:30am 7.1 4.0 3.5 78 1.6 S 9 17 5 9 1016.4 1016.6 0.0
24/03:00am 6.8 3.7 3.6 80 1.4 S 9 13 5 7 1016.6 1016.8 0.0
24/02:30am 6.9 2.6 3.3 78 1.6 SSW 15 28 8 15 1016.6 1016.8 0.0
24/02:00am 6.8 3.3 3.4 79 1.5 S 11 24 6 13 1016.8 1017.0 0.0
24/01:30am 6.9 2.6 3.3 78 1.6 SSE 15 28 8 15 1016.8 1017.0 0.0
24/01:00am 6.4 2.3 6.0 97 0.2 SE 17 26 9 14 1016.6 1016.8 0.0
24/12:30am 6.4 3.0 6.1 98 0.1 SE 13 19 7 10 1016.6 1016.8 0.0
24/12:00am 6.6 3.9 5.6 93 0.5 SSE 9 15 5 8 1016.2 1016.4 0.0
 
Date/Time
EST
Temp
°C
App
Temp
°C
Dew
Point
°C
Rel
Hum
%
Delta-T
°C
Wind Press
QNH
hPa
Press
MSL
hPa
Rain since
9am
mm
Dir  Spd
km/h
Gust
km/h
Spd
kts
Gust
kts
23/11:30pm 6.6 2.4 5.9 95 0.3 SE 17 26 9 14 1016.1 1016.3 0.0
23/11:00pm 6.7 2.9 5.7 93 0.5 SE 15 20 8 11 1016.1 1016.3 0.0
23/10:30pm 6.7 3.5 5.2 90 0.7 SSE 11 17 6 9 1015.9 1016.1 0.0
23/10:00pm 6.5 3.0 5.3 92 0.6 SSE 13 19 7 10 1015.9 1016.1 0.0
23/09:30pm 6.6 3.8 5.1 90 0.7 SSE 9 15 5 8 1015.8 1016.0 0.0
23/09:00pm 6.6 3.3 4.8 88 0.8 SSE 11 17 6 9 1015.7 1015.9 0.0
23/08:30pm 6.8 4.4 4.5 85 1.0 S 6 11 3 6 1015.6 1015.8 0.0
23/08:00pm 6.9 3.9 4.0 82 1.3 SSE 9 17 5 9 1015.5 1015.7 0.0
23/07:30pm 6.9 4.4 3.9 81 1.3 S 6 13 3 7 1015.3 1015.4 0.0
23/07:00pm 7.0 4.5 3.6 79 1.5 S 6 9 3 5 1015.2 1015.3 0.0
23/06:30pm 7.1 4.6 3.5 78 1.6 SSW 6 11 3 6 1015.1 1015.2 0.0
23/06:00pm 7.1 4.3 3.2 76 1.7 S 7 11 4 6 1014.8 1015.0 0.0
23/05:30pm 7.1 4.2 2.8 74 1.9 SSW 7 9 4 5 1014.6 1014.8 0.0
23/05:00pm 7.4 4.1 2.5 71 2.1 S 9 22 5 12 1014.5 1014.7 0.0
23/04:30pm 7.9 3.6 3.0 71 2.2 SSW 15 28 8 15 1014.3 1014.5 0.0
23/04:00pm 8.2 4.7 3.3 71 2.2 S 11 22 6 12 1014.1 1014.3 0.0
23/03:30pm 7.9 4.4 3.6 74 1.9 SSW 11 17 6 9 1014.0 1014.1 0.0
23/03:00pm 7.9 3.9 3.0 71 2.2 SSW 13 22 7 12 1014.0 1014.1 0.0
23/02:30pm 9.0 4.7 3.2 67 2.6 SSW 15 30 8 16 1013.9 1014.0 0.0
23/02:00pm 9.8 5.3 4.2 68 2.6 SSW 17 28 9 15 1013.8 1013.9 0.0
23/01:30pm 8.7 4.6 4.1 73 2.1 SSW 15 26 8 14 1014.0 1014.1 0.0
23/01:00pm 7.7 2.6 3.0 72 2.1 SSW 19 28 10 15 1014.2 1014.4 0.0
23/12:30pm 8.1 3.6 4.3 77 1.7 SSW 17 28 9 15 1014.5 1014.7 0.0
23/12:00pm 7.5 3.0 4.3 80 1.4 SSW 17 35 9 19 1015.0 1015.1 0.0
23/11:30am 6.9 3.1 4.0 82 1.3 SSW 13 26 7 14 1015.6 1015.8 0.0
23/11:00am 6.5 2.3 4.0 84 1.1 SSW 15 26 8 14 1016.0 1016.2 0.0

Other formats

Comma delimited format used in spreadsheet applications
http://www.bom.gov.au/fwo/IDV60801/IDV60801.94908.axf

JavaScript Object Notation format (JSON) in row-major order
http://www.bom.gov.au/fwo/IDV60801/IDV60801.94908.json

Data quality

Most of these data are generated automatically and are frequently updated. Quality checks on data are not normally performed. It is possible for incorrect values to appear. Refer to information at About Latest Weather Observations and please check the disclaimer before using these data.